Scottsville, Virginia
Current Conditions -  °F | °C
As of 11:31 AM on Wednesday 26 Nov 2014 (Local Time) from KCHO Reporting Station
Light Snow Light Snow  
Wind Chill: 28°   Ceiling: 700
Heat Index: 33°   Visibility: 2.5mi
Dew Point: 32°   Wind: 6mph
Humidity: 96%   Direction: 350°N
Pressure: 29.99"   Gusts: NA
Location:  37.8°N, 78.5°W
Report Text: KCHO 261631Z 35005KT 2 1/2SM -SN BR SCT004 BKN007 OVC014 01/00 A2999 RMK AO2 P0002 T00060000
Loading
Personal Weather Stations






























Interactive Weather Map New forecast layout! Learn more

10-Day Weather Forecast

Advertisements
Track Severe Weather on mobile